createdAt,value
2022-11-16T00:03:23.680Z,6.40
2022-11-16T00:13:27.193Z,6.30
2022-11-16T00:23:32.337Z,6.30
2022-11-16T00:33:36.157Z,6.30
2022-11-16T00:43:41.068Z,6.20
2022-11-16T00:53:44.563Z,6.30
2022-11-16T01:03:49.456Z,6.40
2022-11-16T01:13:53.437Z,6.40
2022-11-16T01:23:58.245Z,6.40
2022-11-16T01:34:01.847Z,6.40
2022-11-16T01:44:47.053Z,6.50
2022-11-16T01:54:56.196Z,6.50
2022-11-16T02:05:05.842Z,6.50
2022-11-16T02:15:30.678Z,6.50
2022-11-16T02:25:58.085Z,6.60
2022-11-16T02:36:06.800Z,6.50
2022-11-16T02:46:18.034Z,6.50
2022-11-16T02:56:22.886Z,6.50
2022-11-16T03:06:31.196Z,6.60
2022-11-16T03:16:39.431Z,6.50
2022-11-16T03:26:50.634Z,6.50
2022-11-16T03:36:57.514Z,6.60
2022-11-16T03:47:00.869Z,6.60
2022-11-16T03:57:05.669Z,6.50
2022-11-16T04:07:28.049Z,6.50
2022-11-16T04:17:50.508Z,6.50
2022-11-16T04:28:13.177Z,6.50
2022-11-16T04:38:20.517Z,6.60
2022-11-16T04:48:23.648Z,6.60
2022-11-16T04:58:31.291Z,6.70
2022-11-16T05:08:35.096Z,6.70
2022-11-16T05:18:41.660Z,6.70
2022-11-16T05:28:45.391Z,6.80
2022-11-16T05:38:55.167Z,6.70
2022-11-16T05:49:01.509Z,6.80
2022-11-16T05:59:06.166Z,6.80
2022-11-16T06:09:09.869Z,6.80
2022-11-16T06:19:15.389Z,6.80
2022-11-16T06:29:18.637Z,6.80
2022-11-16T06:39:23.395Z,6.80
2022-11-16T06:49:28.569Z,6.90
2022-11-16T06:59:37.282Z,7.10
2022-11-16T07:09:40.644Z,7.40
2022-11-16T07:19:45.937Z,7.80
2022-11-16T07:29:49.102Z,8.00
2022-11-16T07:40:18.372Z,8.00
2022-11-16T07:50:23.198Z,8.00
2022-11-16T08:00:28.979Z,7.90
2022-11-16T08:10:42.848Z,7.80
2022-11-16T08:20:48.365Z,7.40
2022-11-16T08:30:54.000Z,7.00
2022-11-16T08:41:00.424Z,6.80
2022-11-16T08:51:21.475Z,6.60
2022-11-16T09:01:33.667Z,6.60
2022-11-16T09:11:37.273Z,6.70
2022-11-16T09:21:42.123Z,6.60
2022-11-16T09:31:45.756Z,6.80
2022-11-16T09:42:11.342Z,6.90
2022-11-16T09:52:23.439Z,6.90
2022-11-16T10:02:33.845Z,6.70
2022-11-16T10:12:43.821Z,6.60
2022-11-16T10:22:56.981Z,6.60
2022-11-16T10:33:10.930Z,6.60
2022-11-16T10:43:18.316Z,6.60
2022-11-16T10:53:29.810Z,6.60
2022-11-16T11:03:34.902Z,6.50
2022-11-16T11:13:38.699Z,6.40
2022-11-16T11:23:51.933Z,6.30
2022-11-16T11:33:59.524Z,6.30
2022-11-16T11:44:06.982Z,6.20
2022-11-16T11:54:19.676Z,6.20
2022-11-16T12:05:35.050Z,6.20
2022-11-16T12:15:53.246Z,6.10
2022-11-16T12:26:07.973Z,6.10
2022-11-16T12:36:28.716Z,6.00
2022-11-16T12:46:46.314Z,5.90
2022-11-16T12:57:02.453Z,5.80
2022-11-16T13:07:13.788Z,5.90
2022-11-16T13:17:22.925Z,5.90
2022-11-16T13:27:38.104Z,5.80
2022-11-16T13:37:49.646Z,5.70
2022-11-16T13:47:57.273Z,5.50
2022-11-16T13:58:04.247Z,5.50
2022-11-16T14:08:52.454Z,5.40
2022-11-16T14:18:58.225Z,5.30
2022-11-16T14:29:29.450Z,5.20
2022-11-16T14:39:38.523Z,5.20
2022-11-16T14:49:46.619Z,5.20
2022-11-16T14:59:50.852Z,5.10
2022-11-16T15:09:59.248Z,5.00
2022-11-16T15:20:13.347Z,5.00
2022-11-16T15:30:22.643Z,5.00
2022-11-16T15:40:26.574Z,4.90
2022-11-16T15:50:31.984Z,4.90
2022-11-16T16:00:38.032Z,4.90
2022-11-16T16:10:42.955Z,4.90
2022-11-16T16:20:49.849Z,4.90
2022-11-16T16:30:55.251Z,4.90
2022-11-16T16:41:02.982Z,4.90
2022-11-16T16:51:08.030Z,4.80
2022-11-16T17:01:12.356Z,4.80
2022-11-16T17:11:18.106Z,4.70
2022-11-16T17:21:23.385Z,4.70
2022-11-16T17:31:29.174Z,4.70
2022-11-16T17:41:32.714Z,4.50
2022-11-16T17:51:37.630Z,4.40
2022-11-16T18:01:41.777Z,4.40
2022-11-16T18:11:46.962Z,4.30
2022-11-16T18:21:50.437Z,4.30
2022-11-16T18:31:56.085Z,4.20
2022-11-16T18:41:59.538Z,4.00
2022-11-16T18:52:05.022Z,3.80
2022-11-16T19:02:12.779Z,3.70
2022-11-16T19:12:18.290Z,3.60
2022-11-16T19:22:29.580Z,3.50
2022-11-16T19:32:34.840Z,3.30
2022-11-16T19:42:39.667Z,3.30
2022-11-16T19:52:46.826Z,3.20
2022-11-16T20:02:50.339Z,3.10
2022-11-16T20:12:57.638Z,3.00
2022-11-16T20:23:02.202Z,2.80
2022-11-16T20:33:07.249Z,2.80
2022-11-16T20:43:14.419Z,2.60
2022-11-16T20:53:22.274Z,2.50
2022-11-16T21:03:26.193Z,2.50
2022-11-16T21:13:48.701Z,2.40
2022-11-16T21:23:53.386Z,2.30
2022-11-16T21:34:00.639Z,2.30
2022-11-16T21:44:04.129Z,2.20
2022-11-16T21:54:11.361Z,2.30
2022-11-16T22:04:32.508Z,2.20
2022-11-16T22:14:37.291Z,2.20
2022-11-16T22:24:41.053Z,2.20
2022-11-16T22:34:46.149Z,2.10
2022-11-16T22:44:49.591Z,2.10
2022-11-16T22:54:54.445Z,2.10
2022-11-16T23:04:57.929Z,2.20
2022-11-16T23:15:20.299Z,2.20
2022-11-16T23:25:41.110Z,2.20
2022-11-16T23:35:45.893Z,2.00
2022-11-16T23:45:49.508Z,2.00
2022-11-16T23:55:54.279Z,1.90
